createdAt,value
2018-06-15T00:02:14.043Z,18.33
2018-06-15T00:04:41.665Z,18.31
2018-06-15T00:07:09.514Z,18.30
2018-06-15T00:09:37.226Z,18.30
2018-06-15T00:12:05.808Z,18.30
2018-06-15T00:14:33.405Z,18.30
2018-06-15T00:17:01.424Z,18.29
2018-06-15T00:19:30.230Z,18.29
2018-06-15T00:21:58.432Z,18.28
2018-06-15T00:24:26.366Z,18.27
2018-06-15T00:26:54.750Z,18.28
2018-06-15T00:29:22.344Z,18.27
2018-06-15T00:31:51.117Z,18.25
2018-06-15T00:34:18.958Z,18.24
2018-06-15T00:36:46.541Z,18.22
2018-06-15T00:39:16.242Z,18.22
2018-06-15T00:41:44.802Z,18.22
2018-06-15T00:44:12.715Z,18.21
2018-06-15T00:46:40.385Z,18.20
2018-06-15T00:49:08.405Z,18.19
2018-06-15T00:51:36.382Z,18.19
2018-06-15T00:54:03.975Z,18.19
2018-06-15T00:56:31.750Z,18.18
2018-06-15T00:58:59.335Z,18.18
2018-06-15T01:01:27.215Z,18.18
2018-06-15T01:03:55.316Z,18.18
2018-06-15T01:06:22.994Z,18.18
2018-06-15T01:08:50.565Z,18.16
2018-06-15T01:11:18.940Z,18.16
2018-06-15T01:13:46.524Z,18.16
2018-06-15T01:16:14.113Z,18.16
2018-06-15T01:18:41.757Z,18.19
2018-06-15T01:21:10.100Z,18.18
2018-06-15T01:23:37.680Z,18.19
2018-06-15T01:26:05.255Z,18.20
2018-06-15T01:28:33.190Z,18.18
2018-06-15T01:31:00.786Z,18.20
2018-06-15T01:33:28.420Z,18.20
2018-06-15T01:35:56.024Z,18.21
2018-06-15T01:38:23.910Z,18.21
2018-06-15T01:40:51.490Z,18.23
2018-06-15T01:43:19.078Z,18.22
2018-06-15T01:45:46.689Z,18.22
2018-06-15T01:48:14.694Z,18.23
2018-06-15T01:50:42.258Z,18.23
2018-06-15T01:53:09.890Z,18.25
2018-06-15T01:55:37.484Z,18.24
2018-06-15T01:58:05.058Z,18.26
2018-06-15T02:00:32.671Z,18.26
2018-06-15T02:03:00.258Z,18.26
2018-06-15T02:05:28.146Z,18.26
2018-06-15T02:07:56.634Z,18.25
2018-06-15T02:10:24.255Z,18.25
2018-06-15T02:12:51.850Z,18.25
2018-06-15T02:15:20.600Z,18.25
2018-06-15T02:17:48.166Z,18.24
2018-06-15T02:20:15.780Z,18.24
2018-06-15T02:22:43.651Z,18.23
2018-06-15T02:25:11.226Z,18.23
2018-06-15T02:27:38.804Z,18.23
2018-06-15T02:30:06.690Z,18.21
2018-06-15T02:32:34.299Z,18.22
2018-06-15T02:35:01.867Z,18.20
2018-06-15T02:37:29.467Z,18.18
2018-06-15T02:39:57.346Z,18.17
2018-06-15T02:42:26.582Z,18.14
2018-06-15T02:44:54.172Z,18.14
2018-06-15T02:47:21.748Z,18.13
2018-06-15T02:49:49.599Z,18.13
2018-06-15T02:52:17.222Z,18.11
2018-06-15T02:54:44.787Z,18.12
2018-06-15T02:57:16.874Z,18.12
2018-06-15T02:59:44.510Z,18.12
2018-06-15T03:02:12.092Z,18.11
2018-06-15T03:04:39.675Z,18.11
2018-06-15T03:07:07.538Z,18.12
2018-06-15T03:09:35.136Z,18.12
2018-06-15T03:12:02.762Z,18.12
2018-06-15T03:14:32.010Z,18.13
2018-06-15T03:16:59.919Z,18.12
2018-06-15T03:19:27.520Z,18.13
2018-06-15T03:21:56.738Z,18.12
2018-06-15T03:24:24.350Z,18.11
2018-06-15T03:26:52.934Z,18.10
2018-06-15T03:29:20.614Z,18.09
2018-06-15T03:31:49.010Z,18.09
2018-06-15T03:34:16.578Z,18.10
2018-06-15T03:36:44.433Z,18.09
2018-06-15T03:39:13.088Z,18.09
2018-06-15T03:41:40.674Z,18.08
2018-06-15T03:44:08.754Z,18.08
2018-06-15T03:46:37.056Z,18.09
2018-06-15T03:49:04.629Z,18.08
2018-06-15T03:51:32.223Z,18.10
2018-06-15T03:54:00.120Z,18.11
2018-06-15T03:56:28.286Z,18.11
2018-06-15T03:58:55.919Z,18.11
2018-06-15T04:01:24.380Z,18.12
2018-06-15T04:03:52.551Z,18.12
2018-06-15T04:06:24.522Z,18.13
2018-06-15T04:08:52.157Z,18.13
2018-06-15T04:11:20.003Z,18.13
2018-06-15T04:13:47.570Z,18.12
2018-06-15T04:16:15.168Z,18.13
2018-06-15T04:18:43.039Z,18.12
2018-06-15T04:21:10.662Z,18.11
2018-06-15T04:23:38.236Z,18.12
2018-06-15T04:26:06.086Z,18.11
2018-06-15T04:28:33.689Z,18.12
2018-06-15T04:31:01.934Z,18.12
2018-06-15T04:33:29.774Z,18.13
2018-06-15T04:35:58.174Z,18.15
2018-06-15T04:38:26.372Z,18.15
2018-06-15T04:40:54.210Z,18.15
2018-06-15T04:43:22.399Z,18.15
2018-06-15T04:45:49.999Z,18.18
2018-06-15T04:48:17.890Z,18.19
2018-06-15T04:50:45.505Z,18.19
2018-06-15T04:53:14.253Z,18.22
2018-06-15T04:55:44.346Z,18.23
2018-06-15T04:58:11.966Z,18.24
2018-06-15T05:00:39.561Z,18.25
2018-06-15T05:03:07.502Z,18.26
2018-06-15T05:05:35.836Z,18.28
2018-06-15T05:08:03.415Z,18.30
2018-06-15T05:10:31.304Z,18.30
2018-06-15T05:12:58.901Z,18.31
2018-06-15T05:15:26.480Z,18.31
2018-06-15T05:17:56.306Z,18.33
2018-06-15T05:20:23.869Z,18.35
2018-06-15T05:22:51.450Z,18.37
2018-06-15T05:25:19.951Z,18.38
2018-06-15T05:27:47.522Z,18.38
2018-06-15T05:30:15.895Z,18.41
2018-06-15T05:32:45.090Z,18.44
2018-06-15T05:35:13.338Z,18.45
2018-06-15T05:37:42.340Z,18.47
2018-06-15T05:40:10.342Z,18.48
2018-06-15T05:42:38.265Z,18.51
2018-06-15T05:45:05.858Z,18.52
2018-06-15T05:47:35.119Z,18.54
2018-06-15T05:50:02.766Z,18.57
2018-06-15T05:52:31.238Z,18.59
2018-06-15T05:55:02.211Z,18.59
2018-06-15T05:57:31.254Z,18.61
2018-06-15T05:59:58.828Z,18.62
2018-06-15T06:02:26.670Z,18.65
2018-06-15T06:04:54.261Z,18.66
2018-06-15T06:07:21.824Z,18.67
2018-06-15T06:09:49.681Z,18.69
2018-06-15T06:12:17.265Z,18.71
2018-06-15T06:14:44.854Z,18.72
2018-06-15T06:17:12.697Z,18.75
2018-06-15T06:19:44.469Z,18.78
2018-06-15T06:22:13.997Z,18.80
2018-06-15T06:24:41.872Z,18.82
2018-06-15T06:27:09.502Z,18.85
2018-06-15T06:29:37.216Z,18.92
2018-06-15T06:32:06.932Z,18.94
2018-06-15T06:34:34.543Z,18.97
2018-06-15T06:37:03.711Z,18.99
2018-06-15T06:39:33.882Z,19.03
2018-06-15T06:42:01.482Z,19.08
2018-06-15T06:44:29.095Z,19.10
2018-06-15T06:46:57.002Z,19.12
2018-06-15T06:49:24.582Z,19.15
2018-06-15T06:51:52.148Z,19.17
2018-06-15T06:54:20.018Z,19.20
2018-06-15T06:56:48.242Z,19.24
2018-06-15T06:59:16.438Z,19.28
2018-06-15T07:01:45.130Z,19.31
2018-06-15T07:04:12.690Z,19.32
2018-06-15T07:06:40.273Z,19.33
2018-06-15T07:09:08.126Z,19.36
2018-06-15T07:11:35.760Z,19.37
2018-06-15T07:14:03.370Z,19.38
2018-06-15T07:16:32.131Z,19.40
2018-06-15T07:18:59.710Z,19.41
2018-06-15T07:21:27.356Z,19.43
2018-06-15T07:23:58.442Z,19.46
2018-06-15T07:26:27.290Z,19.48
2018-06-15T07:28:56.031Z,19.50
2018-06-15T07:31:23.910Z,19.53
2018-06-15T07:33:51.665Z,19.57
2018-06-15T07:36:19.257Z,19.61
2018-06-15T07:38:47.165Z,19.65
2018-06-15T07:41:16.386Z,19.69
2018-06-15T07:43:44.966Z,19.73
2018-06-15T07:46:12.873Z,19.76
2018-06-15T07:48:40.508Z,19.77
2018-06-15T07:51:08.094Z,19.83
2018-06-15T07:53:36.208Z,19.87
2018-06-15T07:56:03.800Z,19.93
2018-06-15T07:58:31.377Z,19.97
2018-06-15T08:00:59.345Z,20.02
2018-06-15T08:03:28.733Z,20.06
2018-06-15T08:05:57.238Z,20.09
2018-06-15T08:08:25.708Z,20.12
2018-06-15T08:10:53.917Z,20.16
2018-06-15T08:13:22.135Z,20.22
2018-06-15T08:15:50.713Z,20.28
2018-06-15T08:18:18.302Z,20.34
2018-06-15T08:20:45.859Z,20.38
2018-06-15T08:23:14.535Z,20.38
2018-06-15T08:25:42.750Z,20.36
2018-06-15T08:28:10.590Z,20.35
2018-06-15T08:30:38.469Z,20.33
2018-06-15T08:33:06.062Z,20.32
2018-06-15T08:35:34.503Z,20.32
2018-06-15T08:38:02.611Z,20.31
2018-06-15T08:40:30.447Z,20.32
2018-06-15T08:42:58.031Z,20.34
2018-06-15T08:45:26.920Z,20.34
2018-06-15T08:47:54.494Z,20.37
2018-06-15T08:50:24.076Z,20.39
2018-06-15T08:52:52.987Z,20.40
2018-06-15T08:55:21.338Z,20.42
2018-06-15T08:57:49.611Z,20.47
2018-06-15T09:00:18.380Z,20.49
2018-06-15T09:02:46.351Z,20.50
2018-06-15T09:05:15.317Z,20.50
2018-06-15T09:07:43.188Z,20.50
2018-06-15T09:10:10.785Z,20.52
2018-06-15T09:12:38.391Z,20.54
2018-06-15T09:15:06.250Z,20.56
2018-06-15T09:17:34.342Z,20.62
2018-06-15T09:20:01.947Z,20.71
2018-06-15T09:22:29.790Z,20.76
2018-06-15T09:24:57.372Z,20.79
2018-06-15T09:27:25.902Z,20.81
2018-06-15T09:29:54.438Z,20.82
2018-06-15T09:32:22.034Z,20.82
2018-06-15T09:34:51.344Z,20.83
2018-06-15T09:37:18.935Z,20.82
2018-06-15T09:39:47.158Z,20.83
2018-06-15T09:42:15.020Z,20.86
2018-06-15T09:44:42.595Z,20.88
2018-06-15T09:47:10.178Z,20.87
2018-06-15T09:49:38.125Z,20.88
2018-06-15T09:52:05.730Z,20.89
2018-06-15T09:54:34.209Z,20.93
2018-06-15T09:57:02.321Z,20.96
2018-06-15T09:59:30.737Z,20.97
2018-06-15T10:01:58.350Z,20.98
2018-06-15T10:04:27.074Z,21.00
2018-06-15T10:06:54.762Z,21.05
2018-06-15T10:09:23.219Z,21.09
2018-06-15T10:11:52.171Z,21.13
2018-06-15T10:14:20.378Z,21.17
2018-06-15T10:16:48.795Z,21.20
2018-06-15T10:19:17.280Z,21.21
2018-06-15T10:21:44.850Z,21.20
2018-06-15T10:24:12.418Z,21.20
2018-06-15T10:26:42.097Z,21.19
2018-06-15T10:29:10.302Z,21.20
2018-06-15T10:31:41.469Z,21.22
2018-06-15T10:34:09.673Z,21.24
2018-06-15T10:36:37.335Z,21.26
2018-06-15T10:39:05.559Z,21.29
2018-06-15T10:41:34.150Z,21.35
2018-06-15T10:44:02.285Z,21.46
2018-06-15T10:46:29.878Z,21.55
2018-06-15T10:48:59.020Z,21.64
2018-06-15T10:51:26.589Z,21.68
2018-06-15T10:53:54.925Z,21.72
2018-06-15T10:56:22.812Z,21.73
2018-06-15T10:58:53.691Z,21.74
2018-06-15T11:01:23.012Z,21.76
2018-06-15T11:03:51.590Z,21.79
2018-06-15T11:06:19.919Z,21.83
2018-06-15T11:08:47.504Z,21.86
2018-06-15T11:11:16.233Z,21.92
2018-06-15T11:13:44.816Z,21.98
2018-06-15T11:16:12.928Z,22.05
2018-06-15T11:18:41.447Z,22.13
2018-06-15T11:21:09.046Z,22.17
2018-06-15T11:23:37.396Z,22.22
2018-06-15T11:26:07.598Z,22.29
2018-06-15T11:28:35.787Z,22.38
2018-06-15T11:31:04.450Z,22.46
2018-06-15T11:33:33.352Z,22.54
2018-06-15T11:36:02.238Z,22.62
2018-06-15T11:38:29.816Z,22.69
2018-06-15T11:40:57.784Z,22.79
2018-06-15T11:43:25.453Z,22.86
2018-06-15T11:45:53.054Z,22.92
2018-06-15T11:48:20.955Z,22.90
2018-06-15T11:50:49.530Z,22.85
2018-06-15T11:53:17.103Z,22.83
2018-06-15T11:55:45.226Z,22.81
2018-06-15T11:58:14.574Z,22.83
2018-06-15T12:00:42.212Z,22.83
2018-06-15T12:03:10.117Z,22.84
2018-06-15T12:05:39.319Z,22.84
2018-06-15T12:08:06.889Z,22.83
2018-06-15T12:10:34.743Z,22.83
2018-06-15T12:13:03.222Z,22.84
2018-06-15T12:15:32.266Z,22.81
2018-06-15T12:18:01.054Z,22.82
2018-06-15T12:20:29.790Z,22.88
2018-06-15T12:22:57.516Z,22.96
2018-06-15T12:25:28.879Z,23.04
2018-06-15T12:27:56.490Z,23.10
2018-06-15T12:30:24.128Z,23.13
2018-06-15T12:32:53.298Z,23.13
2018-06-15T12:35:22.198Z,23.14
2018-06-15T12:37:50.734Z,23.14
2018-06-15T12:40:18.616Z,23.14
2018-06-15T12:42:46.430Z,23.12
2018-06-15T12:45:15.347Z,23.13
2018-06-15T12:47:43.972Z,23.17
2018-06-15T12:50:12.482Z,23.18
2018-06-15T12:52:40.810Z,23.21
2018-06-15T12:55:09.576Z,23.22
2018-06-15T12:57:37.502Z,23.22
2018-06-15T13:00:06.023Z,23.20
2018-06-15T13:02:34.062Z,23.17
2018-06-15T13:05:01.684Z,23.13
2018-06-15T13:07:29.270Z,23.12
2018-06-15T13:09:57.142Z,23.12
2018-06-15T13:12:24.698Z,23.11
2018-06-15T13:14:52.294Z,23.11
2018-06-15T13:17:20.151Z,23.14
2018-06-15T13:19:47.726Z,23.20
2018-06-15T13:22:15.333Z,23.28
2018-06-15T13:24:43.247Z,23.32
2018-06-15T13:27:10.808Z,23.34
2018-06-15T13:29:38.419Z,23.33
2018-06-15T13:32:07.856Z,23.30
2018-06-15T13:34:36.587Z,23.32
2018-06-15T13:37:04.219Z,23.36
2018-06-15T13:39:32.078Z,23.41
2018-06-15T13:41:59.662Z,23.48
2018-06-15T13:44:27.229Z,23.48
2018-06-15T13:46:55.106Z,23.46
2018-06-15T13:49:22.694Z,23.41
2018-06-15T13:51:51.886Z,23.40
2018-06-15T13:54:20.424Z,23.39
2018-06-15T13:56:49.272Z,23.35
2018-06-15T14:01:50.447Z,23.44
2018-06-15T14:04:19.438Z,23.47
2018-06-15T14:06:47.797Z,23.51
2018-06-15T14:09:15.650Z,23.54
2018-06-15T14:11:47.087Z,23.56
2018-06-15T14:14:14.669Z,23.54
2018-06-15T14:16:44.646Z,23.53
2018-06-15T14:19:12.222Z,23.53
2018-06-15T14:21:39.823Z,23.52
2018-06-15T14:24:10.099Z,23.51
2018-06-15T14:26:42.333Z,23.51
2018-06-15T14:29:10.823Z,23.56
2018-06-15T14:31:43.795Z,23.61
2018-06-15T14:34:11.410Z,23.69
2018-06-15T14:36:39.100Z,23.73
2018-06-15T14:39:07.151Z,23.72
2018-06-15T14:41:35.427Z,23.72
2018-06-15T14:44:03.011Z,23.77
2018-06-15T14:46:32.107Z,23.80
2018-06-15T14:48:59.689Z,23.77
2018-06-15T14:51:27.286Z,23.77
2018-06-15T14:53:56.066Z,23.75
2018-06-15T14:56:23.666Z,23.77
2018-06-15T14:58:52.071Z,23.86
2018-06-15T15:01:21.240Z,23.90
2018-06-15T15:03:49.406Z,23.92
2018-06-15T15:06:18.236Z,23.92
2018-06-15T15:08:45.836Z,23.92
2018-06-15T15:11:14.246Z,23.92
2018-06-15T15:13:42.385Z,23.89
2018-06-15T15:16:10.671Z,23.86
2018-06-15T15:18:42.419Z,23.86
2018-06-15T15:21:10.318Z,23.85
2018-06-15T15:23:40.526Z,23.82
2018-06-15T15:26:08.102Z,23.78
2018-06-15T15:28:35.966Z,23.76
2018-06-15T15:31:03.595Z,23.72
2018-06-15T15:33:31.209Z,23.72
2018-06-15T15:35:59.086Z,23.71
2018-06-15T15:38:26.699Z,23.70
2018-06-15T15:40:54.310Z,23.72
2018-06-15T15:43:22.172Z,23.74
2018-06-15T15:45:49.775Z,23.74
2018-06-15T15:48:17.364Z,23.73
2018-06-15T15:50:45.259Z,23.70
2018-06-15T15:53:12.839Z,23.66
2018-06-15T15:55:40.445Z,23.65
2018-06-15T15:58:13.230Z,23.61
2018-06-15T16:00:41.380Z,23.59
2018-06-15T16:03:10.586Z,23.56
2018-06-15T16:05:39.226Z,23.54
2018-06-15T16:08:06.821Z,23.51
2018-06-15T16:10:38.023Z,23.50
2018-06-15T16:13:05.863Z,23.48
2018-06-15T16:15:33.442Z,23.47
2018-06-15T16:18:01.007Z,23.47
2018-06-15T16:20:29.123Z,23.47
2018-06-15T16:22:56.706Z,23.48
2018-06-15T16:25:25.370Z,23.52
2018-06-15T16:27:53.828Z,23.55
2018-06-15T16:30:21.426Z,23.58
2018-06-15T16:32:49.034Z,23.61
2018-06-15T16:35:16.876Z,23.64
2018-06-15T16:37:47.651Z,23.68
2018-06-15T16:40:16.658Z,23.73
2018-06-15T16:42:45.186Z,23.74
2018-06-15T16:45:14.667Z,23.76
2018-06-15T16:47:47.319Z,23.76
2018-06-15T16:50:16.740Z,23.77
2018-06-15T16:52:46.712Z,23.75
2018-06-15T16:55:15.098Z,23.73
2018-06-15T16:57:44.676Z,23.70
2018-06-15T17:00:12.643Z,23.69
2018-06-15T17:02:41.857Z,23.68
2018-06-15T17:05:10.408Z,23.67
2018-06-15T17:07:39.633Z,23.67
2018-06-15T17:10:07.833Z,23.67
2018-06-15T17:12:36.712Z,23.68
2018-06-15T17:15:06.656Z,23.65
2018-06-15T17:17:35.813Z,23.62
2018-06-15T17:20:04.512Z,23.60
2018-06-15T17:22:32.317Z,23.59
2018-06-15T17:25:00.234Z,23.59
2018-06-15T17:27:30.619Z,23.60
2018-06-15T17:29:59.268Z,23.59
2018-06-15T17:32:27.558Z,23.59
2018-06-15T17:34:55.416Z,23.59
2018-06-15T17:37:23.836Z,23.60
2018-06-15T17:39:52.163Z,23.60
2018-06-15T17:42:20.046Z,23.59
2018-06-15T17:44:50.288Z,23.59
2018-06-15T17:47:17.850Z,23.60
2018-06-15T17:49:47.286Z,23.60
2018-06-15T17:52:14.919Z,23.59
2018-06-15T17:54:42.511Z,23.57
2018-06-15T17:57:11.219Z,23.56
2018-06-15T17:59:39.429Z,23.54
2018-06-15T18:02:09.015Z,23.52
2018-06-15T18:04:38.087Z,23.51
2018-06-15T18:07:06.288Z,23.50
2018-06-15T18:09:36.774Z,23.48
2018-06-15T18:12:12.583Z,23.45
2018-06-15T18:14:41.367Z,23.43
2018-06-15T18:17:10.315Z,23.39
2018-06-15T18:19:40.829Z,23.37
2018-06-15T18:22:09.213Z,23.34
2018-06-15T18:29:50.340Z,23.28
2018-06-15T18:32:18.710Z,23.27
2018-06-15T18:34:48.802Z,23.25
2018-06-15T18:37:16.599Z,23.24
2018-06-15T18:39:45.589Z,23.22
2018-06-15T18:42:13.454Z,23.21
2018-06-15T18:44:41.810Z,23.20
2018-06-15T18:47:09.379Z,23.18
2018-06-15T18:49:39.380Z,23.18
2018-06-15T18:52:08.103Z,23.16
2018-06-15T18:54:36.630Z,23.16
2018-06-15T18:57:04.525Z,23.15
2018-06-15T18:59:32.333Z,23.12
2018-06-15T19:02:00.846Z,23.10
2018-06-15T19:04:30.410Z,23.11
2018-06-15T19:07:00.778Z,23.10
2018-06-15T19:09:29.414Z,23.08
2018-06-15T19:11:57.315Z,23.07
2018-06-15T19:14:25.825Z,23.05
2018-06-15T19:16:53.617Z,23.04
2018-06-15T19:19:22.035Z,23.03
2018-06-15T19:21:49.630Z,23.02
2018-06-15T19:24:17.257Z,22.99
2018-06-15T19:26:46.156Z,22.95
2018-06-15T19:29:13.809Z,22.93
2018-06-15T19:31:41.593Z,22.90
2018-06-15T19:34:09.442Z,22.88
2018-06-15T19:36:40.695Z,22.84
2018-06-15T19:39:08.851Z,22.80
2018-06-15T19:41:36.780Z,22.78
2018-06-15T19:44:04.374Z,22.77
2018-06-15T19:46:33.602Z,22.75
2018-06-15T19:49:01.530Z,22.75
2018-06-15T19:51:29.138Z,22.72
2018-06-15T19:53:56.722Z,22.67
2018-06-15T19:56:24.607Z,22.66
2018-06-15T19:58:52.239Z,22.64
2018-06-15T20:01:19.848Z,22.62
2018-06-15T20:03:49.328Z,22.62
2018-06-15T20:06:16.934Z,22.60
2018-06-15T20:08:45.496Z,22.60
2018-06-15T20:11:13.397Z,22.57
2018-06-15T20:13:42.325Z,22.56
2018-06-15T20:16:09.906Z,22.53
2018-06-15T20:18:40.424Z,22.50
2018-06-15T20:21:08.638Z,22.45
2018-06-15T20:23:38.152Z,22.40
2018-06-15T20:26:06.276Z,22.35
2018-06-15T20:28:33.843Z,22.28
2018-06-15T20:31:01.550Z,22.23
2018-06-15T20:33:29.419Z,22.17
2018-06-15T20:35:58.530Z,22.12
2018-06-15T20:38:26.926Z,22.07
2018-06-15T20:40:54.774Z,22.01
2018-06-15T20:43:22.351Z,21.97
2018-06-15T20:45:50.667Z,21.94
2018-06-15T20:48:18.547Z,21.90
2018-06-15T20:50:46.149Z,21.85
2018-06-15T20:53:15.367Z,21.82
2018-06-15T20:55:48.202Z,21.81
2018-06-15T20:58:16.322Z,21.77
2018-06-15T21:00:43.937Z,21.76
2018-06-15T21:03:11.518Z,21.76
2018-06-15T21:05:39.318Z,21.77
2018-06-15T21:08:08.059Z,21.77
2018-06-15T21:10:36.542Z,21.76
2018-06-15T21:13:04.405Z,21.75
2018-06-15T21:15:37.578Z,21.74
2018-06-15T21:18:05.808Z,21.72
2018-06-15T21:20:35.774Z,21.72
2018-06-15T21:23:04.478Z,21.71
2018-06-15T21:25:32.758Z,21.70
2018-06-15T21:28:01.630Z,21.66
2018-06-15T21:30:29.478Z,21.63
2018-06-15T21:32:57.058Z,21.59
2018-06-15T21:35:24.630Z,21.55
2018-06-15T21:37:53.521Z,21.53
2018-06-15T21:40:21.978Z,21.51
2018-06-15T21:42:50.378Z,21.48
2018-06-15T21:45:18.276Z,21.47
2018-06-15T21:47:45.854Z,21.45
2018-06-15T21:50:14.468Z,21.45
2018-06-15T21:52:43.486Z,21.45
2018-06-15T21:55:13.211Z,21.45
2018-06-15T21:57:48.157Z,21.45
2018-06-15T22:00:16.074Z,21.45
2018-06-15T22:02:45.242Z,21.44
2018-06-15T22:05:16.504Z,21.42
2018-06-15T22:07:44.361Z,21.40
2018-06-15T22:10:13.364Z,21.38
2018-06-15T22:12:42.525Z,21.36
2018-06-15T22:15:11.111Z,21.38
2018-06-15T22:17:39.025Z,21.36
2018-06-15T22:20:06.617Z,21.38
2018-06-15T22:22:34.470Z,21.39
2018-06-15T22:25:02.352Z,21.38
2018-06-15T22:27:30.808Z,21.39
2018-06-15T22:29:59.377Z,21.39
2018-06-15T22:32:30.496Z,21.38
2018-06-15T22:34:59.012Z,21.39
2018-06-15T22:37:27.567Z,21.39
2018-06-15T22:39:56.455Z,21.40
2018-06-15T22:42:24.286Z,21.40
2018-06-15T22:44:52.152Z,21.41
2018-06-15T22:47:21.363Z,21.39
2018-06-15T22:49:50.944Z,21.39
2018-06-15T22:52:19.414Z,21.40
2018-06-15T22:54:46.975Z,21.38
2018-06-15T22:57:15.522Z,21.36
2018-06-15T22:59:44.259Z,21.35
2018-06-15T23:02:12.097Z,21.34
2018-06-15T23:04:39.650Z,21.33
2018-06-15T23:07:10.662Z,21.33
2018-06-15T23:09:38.517Z,21.32
2018-06-15T23:12:07.090Z,21.32
2018-06-15T23:14:34.678Z,21.30
2018-06-15T23:17:02.548Z,21.30
2018-06-15T23:19:30.118Z,21.30
2018-06-15T23:21:57.694Z,21.29
2018-06-15T23:24:25.759Z,21.30
2018-06-15T23:26:53.397Z,21.29
2018-06-15T23:29:21.004Z,21.26
2018-06-15T23:31:49.794Z,21.25
2018-06-15T23:34:18.268Z,21.25
2018-06-15T23:36:46.686Z,21.23
2018-06-15T23:39:14.533Z,21.22
2018-06-15T23:41:42.906Z,21.22
2018-06-15T23:44:10.476Z,21.20
2018-06-15T23:46:38.098Z,21.20
2018-06-15T23:49:06.651Z,21.20
2018-06-15T23:51:34.225Z,21.20
2018-06-15T23:54:01.808Z,21.19
2018-06-15T23:56:29.662Z,21.19
2018-06-15T23:58:59.618Z,21.18
